sensor_id;sensor_type;location;lat;lon;timestamp;P1;durP1;ratioP1;P2;durP2;ratioP2
41986;SDS011;28361;50.740;7.084;2022-10-16T00:02:05;2.03;;;0.68;;
41986;SDS011;28361;50.740;7.084;2022-10-16T00:04:31;1.00;;;0.70;;
41986;SDS011;28361;50.740;7.084;2022-10-16T00:06:56;0.73;;;0.73;;
41986;SDS011;28361;50.740;7.084;2022-10-16T00:09:22;2.13;;;0.50;;
41986;SDS011;28361;50.740;7.084;2022-10-16T00:11:48;4.45;;;0.60;;
41986;SDS011;28361;50.740;7.084;2022-10-16T00:14:14;2.05;;;0.52;;
41986;SDS011;28361;50.740;7.084;2022-10-16T00:16:41;1.20;;;0.60;;
41986;SDS011;28361;50.740;7.084;2022-10-16T00:19:07;1.42;;;0.70;;
41986;SDS011;28361;50.740;7.084;2022-10-16T00:21:34;0.95;;;0.50;;
41986;SDS011;28361;50.740;7.084;2022-10-16T00:24:01;0.80;;;0.50;;
41986;SDS011;28361;50.740;7.084;2022-10-16T00:26:28;2.30;;;0.50;;
41986;SDS011;28361;50.740;7.084;2022-10-16T00:28:56;5.38;;;0.55;;
41986;SDS011;28361;50.740;7.084;2022-10-16T00:31:22;2.40;;;0.60;;
41986;SDS011;28361;50.740;7.084;2022-10-16T00:33:48;1.95;;;0.50;;
41986;SDS011;28361;50.740;7.084;2022-10-16T00:36:15;0.52;;;0.50;;
41986;SDS011;28361;50.740;7.084;2022-10-16T00:38:43;4.30;;;0.60;;
41986;SDS011;28361;50.740;7.084;2022-10-16T00:41:11;3.72;;;0.90;;
41986;SDS011;28361;50.740;7.084;2022-10-16T00:46:20;2.53;;;0.82;;
41986;SDS011;28361;50.740;7.084;2022-10-16T00:48:49;1.58;;;0.60;;
41986;SDS011;28361;50.740;7.084;2022-10-16T00:51:21;1.58;;;0.63;;
41986;SDS011;28361;50.740;7.084;2022-10-16T00:56:16;3.20;;;0.70;;
41986;SDS011;28361;50.740;7.084;2022-10-16T00:58:42;0.63;;;0.45;;
41986;SDS011;28361;50.740;7.084;2022-10-16T01:01:07;1.10;;;0.77;;
41986;SDS011;28361;50.740;7.084;2022-10-16T01:03:35;1.65;;;0.50;;
41986;SDS011;28361;50.740;7.084;2022-10-16T01:08:44;0.80;;;0.60;;
41986;SDS011;28361;50.740;7.084;2022-10-16T01:13:48;0.80;;;0.68;;
41986;SDS011;28361;50.740;7.084;2022-10-16T01:18:54;1.33;;;0.73;;
41986;SDS011;28361;50.740;7.084;2022-10-16T01:21:36;2.22;;;0.80;;
41986;SDS011;28361;50.740;7.084;2022-10-16T01:29:49;2.78;;;0.90;;
41986;SDS011;28361;50.740;7.084;2022-10-16T01:32:44;2.25;;;0.93;;
41986;SDS011;28361;50.740;7.084;2022-10-16T01:35:25;6.13;;;1.10;;
41986;SDS011;28361;50.740;7.084;2022-10-16T01:40:44;3.10;;;1.10;;
41986;SDS011;28361;50.740;7.084;2022-10-16T01:43:15;1.52;;;0.80;;
41986;SDS011;28361;50.740;7.084;2022-10-16T01:45:46;1.65;;;1.20;;
41986;SDS011;28361;50.740;7.084;2022-10-16T01:48:13;1.13;;;0.77;;
41986;SDS011;28361;50.740;7.084;2022-10-16T01:50:43;2.22;;;1.15;;
41986;SDS011;28361;50.740;7.084;2022-10-16T01:53:13;2.55;;;1.10;;
41986;SDS011;28361;50.740;7.084;2022-10-16T01:55:44;0.70;;;0.60;;
41986;SDS011;28361;50.740;7.084;2022-10-16T01:58:13;3.00;;;1.13;;
41986;SDS011;28361;50.740;7.084;2022-10-16T02:00:40;1.52;;;0.70;;
41986;SDS011;28361;50.740;7.084;2022-10-16T02:03:10;1.10;;;0.68;;
41986;SDS011;28361;50.740;7.084;2022-10-16T02:08:11;3.60;;;0.55;;
41986;SDS011;28361;50.740;7.084;2022-10-16T02:10:37;0.98;;;0.40;;
41986;SDS011;28361;50.740;7.084;2022-10-16T02:13:06;0.98;;;0.60;;
41986;SDS011;28361;50.740;7.084;2022-10-16T02:15:46;1.42;;;0.47;;
41986;SDS011;28361;50.740;7.084;2022-10-16T02:18:12;0.82;;;0.50;;
41986;SDS011;28361;50.740;7.084;2022-10-16T02:21:13;0.60;;;0.45;;
41986;SDS011;28361;50.740;7.084;2022-10-16T02:26:15;1.02;;;0.57;;
41986;SDS011;28361;50.740;7.084;2022-10-16T02:28:47;1.23;;;0.60;;
41986;SDS011;28361;50.740;7.084;2022-10-16T02:31:21;0.73;;;0.52;;
41986;SDS011;28361;50.740;7.084;2022-10-16T02:33:52;0.93;;;0.60;;
41986;SDS011;28361;50.740;7.084;2022-10-16T02:36:19;0.45;;;0.40;;
41986;SDS011;28361;50.740;7.084;2022-10-16T02:38:46;0.75;;;0.50;;
41986;SDS011;28361;50.740;7.084;2022-10-16T02:41:12;1.02;;;0.60;;
41986;SDS011;28361;50.740;7.084;2022-10-16T02:43:38;0.70;;;0.40;;
41986;SDS011;28361;50.740;7.084;2022-10-16T02:46:04;0.40;;;0.40;;
41986;SDS011;28361;50.740;7.084;2022-10-16T02:48:30;0.80;;;0.40;;
41986;SDS011;28361;50.740;7.084;2022-10-16T02:50:56;1.02;;;0.50;;
41986;SDS011;28361;50.740;7.084;2022-10-16T02:53:22;0.65;;;0.55;;
41986;SDS011;28361;50.740;7.084;2022-10-16T02:55:48;1.48;;;0.43;;
41986;SDS011;28361;50.740;7.084;2022-10-16T02:58:13;1.10;;;0.52;;
41986;SDS011;28361;50.740;7.084;2022-10-16T03:00:39;0.30;;;0.30;;
41986;SDS011;28361;50.740;7.084;2022-10-16T03:03:05;1.70;;;0.68;;
41986;SDS011;28361;50.740;7.084;2022-10-16T03:05:30;0.68;;;0.43;;
41986;SDS011;28361;50.740;7.084;2022-10-16T03:07:56;0.75;;;0.40;;
41986;SDS011;28361;50.740;7.084;2022-10-16T03:10:25;0.47;;;0.47;;
41986;SDS011;28361;50.740;7.084;2022-10-16T03:12:50;1.75;;;0.47;;
41986;SDS011;28361;50.740;7.084;2022-10-16T03:15:16;1.70;;;0.45;;
41986;SDS011;28361;50.740;7.084;2022-10-16T03:17:42;1.05;;;0.40;;
41986;SDS011;28361;50.740;7.084;2022-10-16T03:20:08;1.85;;;0.70;;
41986;SDS011;28361;50.740;7.084;2022-10-16T03:22:34;1.00;;;0.38;;
41986;SDS011;28361;50.740;7.084;2022-10-16T03:24:59;1.67;;;0.90;;
41986;SDS011;28361;50.740;7.084;2022-10-16T03:27:25;1.30;;;0.38;;
41986;SDS011;28361;50.740;7.084;2022-10-16T03:29:51;0.43;;;0.32;;
41986;SDS011;28361;50.740;7.084;2022-10-16T03:32:17;1.08;;;0.85;;
41986;SDS011;28361;50.740;7.084;2022-10-16T03:34:43;4.57;;;0.52;;
41986;SDS011;28361;50.740;7.084;2022-10-16T03:37:09;2.65;;;0.60;;
41986;SDS011;28361;50.740;7.084;2022-10-16T03:39:35;1.00;;;0.70;;
41986;SDS011;28361;50.740;7.084;2022-10-16T03:42:00;1.73;;;0.50;;
41986;SDS011;28361;50.740;7.084;2022-10-16T03:44:26;2.38;;;0.57;;
41986;SDS011;28361;50.740;7.084;2022-10-16T03:46:52;3.90;;;0.77;;
41986;SDS011;28361;50.740;7.084;2022-10-16T03:49:17;1.83;;;0.40;;
41986;SDS011;28361;50.740;7.084;2022-10-16T03:51:43;1.20;;;0.45;;
41986;SDS011;28361;50.740;7.084;2022-10-16T03:54:09;1.45;;;0.52;;
41986;SDS011;28361;50.740;7.084;2022-10-16T03:56:35;2.15;;;0.47;;
41986;SDS011;28361;50.740;7.084;2022-10-16T03:59:01;0.75;;;0.68;;
41986;SDS011;28361;50.740;7.084;2022-10-16T04:01:27;4.28;;;1.30;;
41986;SDS011;28361;50.740;7.084;2022-10-16T04:03:52;4.53;;;0.50;;
41986;SDS011;28361;50.740;7.084;2022-10-16T04:06:18;2.90;;;1.10;;
41986;SDS011;28361;50.740;7.084;2022-10-16T04:08:44;1.35;;;0.50;;
41986;SDS011;28361;50.740;7.084;2022-10-16T04:11:10;4.30;;;2.45;;
41986;SDS011;28361;50.740;7.084;2022-10-16T04:13:36;3.60;;;0.50;;
41986;SDS011;28361;50.740;7.084;2022-10-16T04:16:01;0.70;;;0.40;;
41986;SDS011;28361;50.740;7.084;2022-10-16T04:18:27;2.50;;;0.60;;
41986;SDS011;28361;50.740;7.084;2022-10-16T04:20:54;1.58;;;0.73;;
41986;SDS011;28361;50.740;7.084;2022-10-16T04:23:19;0.50;;;0.50;;
41986;SDS011;28361;50.740;7.084;2022-10-16T04:25:45;2.22;;;0.60;;
41986;SDS011;28361;50.740;7.084;2022-10-16T04:28:11;0.90;;;0.52;;
41986;SDS011;28361;50.740;7.084;2022-10-16T04:30:39;0.70;;;0.50;;
41986;SDS011;28361;50.740;7.084;2022-10-16T04:33:05;0.95;;;0.65;;
41986;SDS011;28361;50.740;7.084;2022-10-16T04:35:31;0.68;;;0.60;;
41986;SDS011;28361;50.740;7.084;2022-10-16T04:37:57;0.80;;;0.60;;
41986;SDS011;28361;50.740;7.084;2022-10-16T04:40:23;0.57;;;0.50;;
41986;SDS011;28361;50.740;7.084;2022-10-16T04:42:49;3.08;;;1.45;;
41986;SDS011;28361;50.740;7.084;2022-10-16T04:45:15;1.80;;;0.93;;
41986;SDS011;28361;50.740;7.084;2022-10-16T04:47:40;1.45;;;0.57;;
41986;SDS011;28361;50.740;7.084;2022-10-16T04:50:06;0.60;;;0.50;;
41986;SDS011;28361;50.740;7.084;2022-10-16T04:52:32;0.85;;;0.70;;
41986;SDS011;28361;50.740;7.084;2022-10-16T04:54:58;2.80;;;0.57;;
41986;SDS011;28361;50.740;7.084;2022-10-16T04:57:27;3.45;;;0.77;;
41986;SDS011;28361;50.740;7.084;2022-10-16T04:59:53;2.08;;;0.90;;
41986;SDS011;28361;50.740;7.084;2022-10-16T05:02:19;3.67;;;0.70;;
41986;SDS011;28361;50.740;7.084;2022-10-16T05:04:44;1.73;;;0.63;;
41986;SDS011;28361;50.740;7.084;2022-10-16T05:07:10;1.30;;;0.80;;
41986;SDS011;28361;50.740;7.084;2022-10-16T05:09:36;1.75;;;0.77;;
41986;SDS011;28361;50.740;7.084;2022-10-16T05:12:02;2.90;;;0.68;;
41986;SDS011;28361;50.740;7.084;2022-10-16T05:14:28;1.35;;;0.60;;
41986;SDS011;28361;50.740;7.084;2022-10-16T05:16:54;1.92;;;0.77;;
41986;SDS011;28361;50.740;7.084;2022-10-16T05:19:20;2.08;;;0.60;;
41986;SDS011;28361;50.740;7.084;2022-10-16T05:21:46;1.70;;;0.80;;
41986;SDS011;28361;50.740;7.084;2022-10-16T05:24:11;1.15;;;0.70;;
41986;SDS011;28361;50.740;7.084;2022-10-16T05:26:37;1.40;;;0.70;;
41986;SDS011;28361;50.740;7.084;2022-10-16T05:29:03;0.70;;;0.60;;
41986;SDS011;28361;50.740;7.084;2022-10-16T05:31:29;2.35;;;0.63;;
41986;SDS011;28361;50.740;7.084;2022-10-16T05:33:58;1.05;;;0.60;;
41986;SDS011;28361;50.740;7.084;2022-10-16T05:36:24;1.15;;;0.70;;
41986;SDS011;28361;50.740;7.084;2022-10-16T05:38:51;0.90;;;0.60;;
41986;SDS011;28361;50.740;7.084;2022-10-16T05:41:17;6.05;;;0.60;;
41986;SDS011;28361;50.740;7.084;2022-10-16T05:43:49;1.67;;;0.65;;
41986;SDS011;28361;50.740;7.084;2022-10-16T05:46:15;1.92;;;0.60;;
41986;SDS011;28361;50.740;7.084;2022-10-16T05:48:41;1.55;;;0.65;;
41986;SDS011;28361;50.740;7.084;2022-10-16T05:51:09;0.52;;;0.52;;
41986;SDS011;28361;50.740;7.084;2022-10-16T05:53:37;1.13;;;0.60;;
41986;SDS011;28361;50.740;7.084;2022-10-16T05:56:03;1.25;;;0.75;;
41986;SDS011;28361;50.740;7.084;2022-10-16T05:58:31;1.67;;;0.60;;
41986;SDS011;28361;50.740;7.084;2022-10-16T06:00:59;1.90;;;0.75;;
41986;SDS011;28361;50.740;7.084;2022-10-16T06:03:35;2.03;;;0.60;;
41986;SDS011;28361;50.740;7.084;2022-10-16T06:06:10;1.00;;;0.80;;
41986;SDS011;28361;50.740;7.084;2022-10-16T06:08:38;1.42;;;0.70;;
41986;SDS011;28361;50.740;7.084;2022-10-16T06:11:06;1.25;;;0.77;;
41986;SDS011;28361;50.740;7.084;2022-10-16T06:13:33;1.55;;;0.73;;
41986;SDS011;28361;50.740;7.084;2022-10-16T06:15:59;2.22;;;0.85;;
41986;SDS011;28361;50.740;7.084;2022-10-16T06:18:27;1.83;;;0.90;;
41986;SDS011;28361;50.740;7.084;2022-10-16T06:20:54;1.00;;;0.65;;
41986;SDS011;28361;50.740;7.084;2022-10-16T06:23:20;1.90;;;1.02;;
41986;SDS011;28361;50.740;7.084;2022-10-16T06:25:46;3.88;;;1.38;;
41986;SDS011;28361;50.740;7.084;2022-10-16T06:28:13;1.27;;;0.95;;
41986;SDS011;28361;50.740;7.084;2022-10-16T06:30:39;1.55;;;0.95;;
41986;SDS011;28361;50.740;7.084;2022-10-16T06:33:05;1.75;;;0.80;;
41986;SDS011;28361;50.740;7.084;2022-10-16T06:35:30;1.92;;;1.00;;
41986;SDS011;28361;50.740;7.084;2022-10-16T06:37:57;2.05;;;1.05;;
41986;SDS011;28361;50.740;7.084;2022-10-16T06:40:23;2.67;;;1.02;;
41986;SDS011;28361;50.740;7.084;2022-10-16T06:42:49;2.95;;;0.98;;
41986;SDS011;28361;50.740;7.084;2022-10-16T06:45:15;1.60;;;1.13;;
41986;SDS011;28361;50.740;7.084;2022-10-16T06:47:40;2.95;;;0.98;;
41986;SDS011;28361;50.740;7.084;2022-10-16T06:50:06;2.08;;;1.00;;
41986;SDS011;28361;50.740;7.084;2022-10-16T06:52:33;4.32;;;0.90;;
41986;SDS011;28361;50.740;7.084;2022-10-16T06:54:59;1.48;;;0.90;;
41986;SDS011;28361;50.740;7.084;2022-10-16T06:57:25;1.02;;;0.82;;
41986;SDS011;28361;50.740;7.084;2022-10-16T06:59:51;2.30;;;1.00;;
41986;SDS011;28361;50.740;7.084;2022-10-16T07:02:17;1.60;;;0.90;;
41986;SDS011;28361;50.740;7.084;2022-10-16T07:04:42;1.55;;;0.80;;
41986;SDS011;28361;50.740;7.084;2022-10-16T07:07:08;2.03;;;0.90;;
41986;SDS011;28361;50.740;7.084;2022-10-16T07:09:34;1.70;;;1.30;;
41986;SDS011;28361;50.740;7.084;2022-10-16T07:12:00;3.05;;;1.13;;
41986;SDS011;28361;50.740;7.084;2022-10-16T07:14:25;5.60;;;1.30;;
41986;SDS011;28361;50.740;7.084;2022-10-16T07:16:51;2.17;;;1.20;;
41986;SDS011;28361;50.740;7.084;2022-10-16T07:19:17;3.13;;;1.10;;
41986;SDS011;28361;50.740;7.084;2022-10-16T07:21:43;2.40;;;1.27;;
41986;SDS011;28361;50.740;7.084;2022-10-16T07:24:13;2.85;;;0.90;;
41986;SDS011;28361;50.740;7.084;2022-10-16T07:26:43;1.75;;;1.20;;
41986;SDS011;28361;50.740;7.084;2022-10-16T07:29:20;2.53;;;0.98;;
41986;SDS011;28361;50.740;7.084;2022-10-16T07:31:46;1.77;;;1.13;;
41986;SDS011;28361;50.740;7.084;2022-10-16T07:34:13;1.58;;;1.20;;
41986;SDS011;28361;50.740;7.084;2022-10-16T07:36:40;1.52;;;1.00;;
41986;SDS011;28361;50.740;7.084;2022-10-16T07:39:06;1.20;;;0.98;;
41986;SDS011;28361;50.740;7.084;2022-10-16T07:41:32;2.30;;;1.20;;
41986;SDS011;28361;50.740;7.084;2022-10-16T07:44:01;2.65;;;1.35;;
41986;SDS011;28361;50.740;7.084;2022-10-16T07:46:28;2.42;;;0.93;;
41986;SDS011;28361;50.740;7.084;2022-10-16T07:48:54;2.20;;;1.00;;
41986;SDS011;28361;50.740;7.084;2022-10-16T07:51:23;1.92;;;0.90;;
41986;SDS011;28361;50.740;7.084;2022-10-16T07:53:50;2.13;;;1.20;;
41986;SDS011;28361;50.740;7.084;2022-10-16T07:56:16;2.05;;;1.10;;
41986;SDS011;28361;50.740;7.084;2022-10-16T07:58:43;1.85;;;1.05;;
41986;SDS011;28361;50.740;7.084;2022-10-16T08:01:10;2.95;;;1.02;;
41986;SDS011;28361;50.740;7.084;2022-10-16T08:03:38;2.25;;;1.40;;
41986;SDS011;28361;50.740;7.084;2022-10-16T08:06:06;2.30;;;0.77;;
41986;SDS011;28361;50.740;7.084;2022-10-16T08:08:32;3.97;;;1.58;;
41986;SDS011;28361;50.740;7.084;2022-10-16T08:10:58;3.72;;;0.70;;
41986;SDS011;28361;50.740;7.084;2022-10-16T08:13:24;3.60;;;1.02;;
41986;SDS011;28361;50.740;7.084;2022-10-16T08:15:51;2.35;;;0.80;;
41986;SDS011;28361;50.740;7.084;2022-10-16T08:18:18;3.47;;;0.90;;
41986;SDS011;28361;50.740;7.084;2022-10-16T08:20:44;1.58;;;0.90;;
41986;SDS011;28361;50.740;7.084;2022-10-16T08:23:13;0.98;;;0.77;;
41986;SDS011;28361;50.740;7.084;2022-10-16T08:25:39;2.60;;;1.30;;
41986;SDS011;28361;50.740;7.084;2022-10-16T08:28:06;1.10;;;0.90;;
41986;SDS011;28361;50.740;7.084;2022-10-16T08:30:33;2.00;;;1.00;;
41986;SDS011;28361;50.740;7.084;2022-10-16T08:33:00;2.45;;;0.95;;
41986;SDS011;28361;50.740;7.084;2022-10-16T08:35:27;3.08;;;0.90;;
41986;SDS011;28361;50.740;7.084;2022-10-16T08:37:52;2.67;;;0.80;;
41986;SDS011;28361;50.740;7.084;2022-10-16T08:42:57;4.60;;;1.02;;
41986;SDS011;28361;50.740;7.084;2022-10-16T08:48:53;5.45;;;1.20;;
41986;SDS011;28361;50.740;7.084;2022-10-16T08:51:23;2.33;;;1.00;;
41986;SDS011;28361;50.740;7.084;2022-10-16T08:53:55;2.60;;;1.25;;
41986;SDS011;28361;50.740;7.084;2022-10-16T08:56:22;1.25;;;0.75;;
41986;SDS011;28361;50.740;7.084;2022-10-16T08:58:49;0.73;;;0.50;;
41986;SDS011;28361;50.740;7.084;2022-10-16T09:01:17;1.83;;;0.80;;
41986;SDS011;28361;50.740;7.084;2022-10-16T09:12:12;0.40;;;0.38;;
41986;SDS011;28361;50.740;7.084;2022-10-16T09:21:21;3.08;;;0.63;;
41986;SDS011;28361;50.740;7.084;2022-10-16T09:23:50;0.73;;;0.40;;
41986;SDS011;28361;50.740;7.084;2022-10-16T09:26:16;0.65;;;0.30;;
41986;SDS011;28361;50.740;7.084;2022-10-16T09:28:44;0.50;;;0.20;;
41986;SDS011;28361;50.740;7.084;2022-10-16T09:31:17;0.20;;;0.20;;
41986;SDS011;28361;50.740;7.084;2022-10-16T09:33:47;0.82;;;0.40;;
41986;SDS011;28361;50.740;7.084;2022-10-16T09:36:17;0.30;;;0.20;;
41986;SDS011;28361;50.740;7.084;2022-10-16T09:38:44;0.82;;;0.40;;
41986;SDS011;28361;50.740;7.084;2022-10-16T09:41:20;1.02;;;0.30;;
41986;SDS011;28361;50.740;7.084;2022-10-16T09:48:59;0.63;;;0.30;;
41986;SDS011;28361;50.740;7.084;2022-10-16T09:51:30;0.60;;;0.30;;
41986;SDS011;28361;50.740;7.084;2022-10-16T09:56:25;0.60;;;0.30;;
41986;SDS011;28361;50.740;7.084;2022-10-16T09:58:53;0.43;;;0.20;;
41986;SDS011;28361;50.740;7.084;2022-10-16T10:01:21;0.20;;;0.20;;
41986;SDS011;28361;50.740;7.084;2022-10-16T10:03:50;2.53;;;0.75;;
41986;SDS011;28361;50.740;7.084;2022-10-16T10:06:26;0.70;;;0.45;;
41986;SDS011;28361;50.740;7.084;2022-10-16T10:11:42;0.30;;;0.22;;
41986;SDS011;28361;50.740;7.084;2022-10-16T10:19:37;0.80;;;0.30;;
41986;SDS011;28361;50.740;7.084;2022-10-16T10:38:09;1.30;;;0.30;;
41986;SDS011;28361;50.740;7.084;2022-10-16T10:41:01;0.20;;;0.17;;
41986;SDS011;28361;50.740;7.084;2022-10-16T10:58:10;0.45;;;0.30;;
41986;SDS011;28361;50.740;7.084;2022-10-16T11:03:31;0.63;;;0.20;;
41986;SDS011;28361;50.740;7.084;2022-10-16T11:08:48;0.10;;;0.10;;
41986;SDS011;28361;50.740;7.084;2022-10-16T11:19:12;0.40;;;0.20;;
41986;SDS011;28361;50.740;7.084;2022-10-16T11:21:51;0.70;;;0.20;;
41986;SDS011;28361;50.740;7.084;2022-10-16T11:24:35;0.22;;;0.20;;
41986;SDS011;28361;50.740;7.084;2022-10-16T11:27:12;0.32;;;0.10;;
41986;SDS011;28361;50.740;7.084;2022-10-16T11:29:44;0.45;;;0.20;;
41986;SDS011;28361;50.740;7.084;2022-10-16T11:32:19;2.30;;;0.60;;
41986;SDS011;28361;50.740;7.084;2022-10-16T11:34:50;0.20;;;0.20;;
41986;SDS011;28361;50.740;7.084;2022-10-16T11:37:21;1.15;;;0.60;;
41986;SDS011;28361;50.740;7.084;2022-10-16T11:39:52;0.43;;;0.20;;
41986;SDS011;28361;50.740;7.084;2022-10-16T11:42:25;0.20;;;0.15;;
41986;SDS011;28361;50.740;7.084;2022-10-16T11:44:58;0.88;;;0.25;;
41986;SDS011;28361;50.740;7.084;2022-10-16T11:50:02;0.32;;;0.22;;
41986;SDS011;28361;50.740;7.084;2022-10-16T11:53:01;0.95;;;0.30;;
41986;SDS011;28361;50.740;7.084;2022-10-16T12:00:47;0.90;;;0.30;;
41986;SDS011;28361;50.740;7.084;2022-10-16T12:06:06;0.73;;;0.30;;
41986;SDS011;28361;50.740;7.084;2022-10-16T12:08:44;1.75;;;0.52;;
41986;SDS011;28361;50.740;7.084;2022-10-16T12:11:22;2.65;;;0.20;;
41986;SDS011;28361;50.740;7.084;2022-10-16T12:14:06;0.30;;;0.25;;
41986;SDS011;28361;50.740;7.084;2022-10-16T12:16:53;0.32;;;0.20;;
41986;SDS011;28361;50.740;7.084;2022-10-16T12:19:23;1.45;;;0.45;;
41986;SDS011;28361;50.740;7.084;2022-10-16T12:21:50;1.55;;;0.93;;
41986;SDS011;28361;50.740;7.084;2022-10-16T12:27:17;1.55;;;0.82;;
41986;SDS011;28361;50.740;7.084;2022-10-16T12:29:54;0.30;;;0.30;;
41986;SDS011;28361;50.740;7.084;2022-10-16T12:32:35;0.80;;;0.30;;
41986;SDS011;28361;50.740;7.084;2022-10-16T12:35:03;1.00;;;0.32;;
41986;SDS011;28361;50.740;7.084;2022-10-16T12:37:33;0.93;;;0.35;;
41986;SDS011;28361;50.740;7.084;2022-10-16T12:40:11;0.30;;;0.20;;
41986;SDS011;28361;50.740;7.084;2022-10-16T12:42:49;1.02;;;0.20;;
41986;SDS011;28361;50.740;7.084;2022-10-16T12:45:29;0.40;;;0.30;;
41986;SDS011;28361;50.740;7.084;2022-10-16T12:47:56;0.57;;;0.30;;
41986;SDS011;28361;50.740;7.084;2022-10-16T12:53:00;3.20;;;0.30;;
41986;SDS011;28361;50.740;7.084;2022-10-16T12:55:31;0.88;;;0.30;;
41986;SDS011;28361;50.740;7.084;2022-10-16T12:58:09;4.95;;;0.63;;
41986;SDS011;28361;50.740;7.084;2022-10-16T13:00:50;0.75;;;0.20;;
41986;SDS011;28361;50.740;7.084;2022-10-16T13:06:14;0.20;;;0.20;;
41986;SDS011;28361;50.740;7.084;2022-10-16T13:20:12;0.30;;;0.30;;
41986;SDS011;28361;50.740;7.084;2022-10-16T13:28:03;0.88;;;0.30;;
41986;SDS011;28361;50.740;7.084;2022-10-16T13:30:36;0.90;;;0.30;;
41986;SDS011;28361;50.740;7.084;2022-10-16T13:35:51;0.40;;;0.30;;
41986;SDS011;28361;50.740;7.084;2022-10-16T13:38:22;0.40;;;0.13;;
41986;SDS011;28361;50.740;7.084;2022-10-16T13:43:22;0.20;;;0.20;;
41986;SDS011;28361;50.740;7.084;2022-10-16T13:46:02;0.95;;;0.30;;
41986;SDS011;28361;50.740;7.084;2022-10-16T13:48:32;0.20;;;0.20;;
41986;SDS011;28361;50.740;7.084;2022-10-16T13:51:20;0.32;;;0.20;;
41986;SDS011;28361;50.740;7.084;2022-10-16T13:53:45;2.83;;;0.75;;
41986;SDS011;28361;50.740;7.084;2022-10-16T13:56:15;0.90;;;0.30;;
41986;SDS011;28361;50.740;7.084;2022-10-16T13:58:43;0.60;;;0.25;;
41986;SDS011;28361;50.740;7.084;2022-10-16T14:01:25;0.10;;;0.10;;
41986;SDS011;28361;50.740;7.084;2022-10-16T14:04:01;0.10;;;0.10;;
41986;SDS011;28361;50.740;7.084;2022-10-16T14:06:30;0.40;;;0.20;;
41986;SDS011;28361;50.740;7.084;2022-10-16T14:09:07;0.20;;;0.20;;
41986;SDS011;28361;50.740;7.084;2022-10-16T14:11:47;0.32;;;0.20;;
41986;SDS011;28361;50.740;7.084;2022-10-16T14:14:16;0.20;;;0.10;;
41986;SDS011;28361;50.740;7.084;2022-10-16T14:16:43;0.20;;;0.20;;
41986;SDS011;28361;50.740;7.084;2022-10-16T14:21:48;0.50;;;0.22;;
41986;SDS011;28361;50.740;7.084;2022-10-16T14:26:56;0.52;;;0.28;;
41986;SDS011;28361;50.740;7.084;2022-10-16T14:29:23;0.60;;;0.30;;
41986;SDS011;28361;50.740;7.084;2022-10-16T14:32:23;0.20;;;0.20;;
41986;SDS011;28361;50.740;7.084;2022-10-16T14:34:41;0.30;;;0.20;;
41986;SDS011;28361;50.740;7.084;2022-10-16T14:39:48;0.50;;;0.30;;
41986;SDS011;28361;50.740;7.084;2022-10-16T14:42:16;1.40;;;0.38;;
41986;SDS011;28361;50.740;7.084;2022-10-16T14:44:44;3.05;;;0.30;;
41986;SDS011;28361;50.740;7.084;2022-10-16T14:47:15;0.43;;;0.20;;
41986;SDS011;28361;50.740;7.084;2022-10-16T14:49:47;1.30;;;0.38;;
41986;SDS011;28361;50.740;7.084;2022-10-16T14:52:13;0.65;;;0.57;;
41986;SDS011;28361;50.740;7.084;2022-10-16T14:54:39;0.80;;;0.40;;
41986;SDS011;28361;50.740;7.084;2022-10-16T14:57:05;1.65;;;0.40;;
41986;SDS011;28361;50.740;7.084;2022-10-16T14:59:46;0.63;;;0.60;;
41986;SDS011;28361;50.740;7.084;2022-10-16T15:04:55;0.50;;;0.30;;
41986;SDS011;28361;50.740;7.084;2022-10-16T15:07:21;1.33;;;0.50;;
41986;SDS011;28361;50.740;7.084;2022-10-16T15:09:47;1.85;;;0.50;;
41986;SDS011;28361;50.740;7.084;2022-10-16T15:12:14;0.65;;;0.38;;
41986;SDS011;28361;50.740;7.084;2022-10-16T15:14:39;0.95;;;0.47;;
41986;SDS011;28361;50.740;7.084;2022-10-16T15:17:07;0.70;;;0.40;;
41986;SDS011;28361;50.740;7.084;2022-10-16T15:19:35;1.20;;;0.43;;
41986;SDS011;28361;50.740;7.084;2022-10-16T15:22:00;1.02;;;0.40;;
41986;SDS011;28361;50.740;7.084;2022-10-16T15:24:26;0.85;;;0.30;;
41986;SDS011;28361;50.740;7.084;2022-10-16T15:26:52;0.73;;;0.40;;
41986;SDS011;28361;50.740;7.084;2022-10-16T15:29:18;1.42;;;0.60;;
41986;SDS011;28361;50.740;7.084;2022-10-16T15:31:43;0.55;;;0.30;;
41986;SDS011;28361;50.740;7.084;2022-10-16T15:34:12;1.88;;;0.65;;
41986;SDS011;28361;50.740;7.084;2022-10-16T15:36:38;1.80;;;0.50;;
41986;SDS011;28361;50.740;7.084;2022-10-16T15:39:11;0.77;;;0.50;;
41986;SDS011;28361;50.740;7.084;2022-10-16T15:41:39;0.98;;;0.40;;
41986;SDS011;28361;50.740;7.084;2022-10-16T15:44:04;0.93;;;0.50;;
41986;SDS011;28361;50.740;7.084;2022-10-16T15:46:30;1.40;;;0.57;;
41986;SDS011;28361;50.740;7.084;2022-10-16T15:48:58;1.95;;;0.50;;
41986;SDS011;28361;50.740;7.084;2022-10-16T15:51:24;0.38;;;0.30;;
41986;SDS011;28361;50.740;7.084;2022-10-16T15:53:53;0.60;;;0.30;;
41986;SDS011;28361;50.740;7.084;2022-10-16T15:56:22;0.50;;;0.40;;
41986;SDS011;28361;50.740;7.084;2022-10-16T15:58:51;0.60;;;0.50;;
41986;SDS011;28361;50.740;7.084;2022-10-16T16:01:18;1.08;;;0.60;;
41986;SDS011;28361;50.740;7.084;2022-10-16T16:03:44;0.50;;;0.40;;
41986;SDS011;28361;50.740;7.084;2022-10-16T16:06:10;1.02;;;0.50;;
41986;SDS011;28361;50.740;7.084;2022-10-16T16:08:38;0.68;;;0.40;;
41986;SDS011;28361;50.740;7.084;2022-10-16T16:11:05;3.05;;;0.60;;
41986;SDS011;28361;50.740;7.084;2022-10-16T16:13:33;0.73;;;0.50;;
41986;SDS011;28361;50.740;7.084;2022-10-16T16:15:59;0.70;;;0.60;;
41986;SDS011;28361;50.740;7.084;2022-10-16T16:18:25;1.13;;;0.63;;
41986;SDS011;28361;50.740;7.084;2022-10-16T16:20:51;4.28;;;1.10;;
41986;SDS011;28361;50.740;7.084;2022-10-16T16:23:18;4.10;;;0.88;;
41986;SDS011;28361;50.740;7.084;2022-10-16T16:25:44;2.03;;;0.90;;
41986;SDS011;28361;50.740;7.084;2022-10-16T16:28:10;3.05;;;0.98;;
41986;SDS011;28361;50.740;7.084;2022-10-16T16:30:39;1.35;;;0.70;;
41986;SDS011;28361;50.740;7.084;2022-10-16T16:33:05;2.70;;;0.82;;
41986;SDS011;28361;50.740;7.084;2022-10-16T16:35:31;2.65;;;1.08;;
41986;SDS011;28361;50.740;7.084;2022-10-16T16:37:57;1.90;;;1.10;;
41986;SDS011;28361;50.740;7.084;2022-10-16T16:40:22;3.72;;;0.80;;
41986;SDS011;28361;50.740;7.084;2022-10-16T16:42:48;2.45;;;0.60;;
41986;SDS011;28361;50.740;7.084;2022-10-16T16:45:14;2.53;;;0.77;;
41986;SDS011;28361;50.740;7.084;2022-10-16T16:47:40;1.92;;;1.00;;
41986;SDS011;28361;50.740;7.084;2022-10-16T16:50:06;2.42;;;0.98;;
41986;SDS011;28361;50.740;7.084;2022-10-16T16:52:32;2.55;;;0.85;;
41986;SDS011;28361;50.740;7.084;2022-10-16T16:54:59;0.93;;;0.70;;
41986;SDS011;28361;50.740;7.084;2022-10-16T16:57:26;1.10;;;0.80;;
41986;SDS011;28361;50.740;7.084;2022-10-16T16:59:51;6.07;;;1.00;;
41986;SDS011;28361;50.740;7.084;2022-10-16T17:02:17;1.52;;;0.40;;
41986;SDS011;28361;50.740;7.084;2022-10-16T17:04:43;4.32;;;0.80;;
41986;SDS011;28361;50.740;7.084;2022-10-16T17:07:08;1.65;;;0.60;;
41986;SDS011;28361;50.740;7.084;2022-10-16T17:09:34;0.90;;;0.60;;
41986;SDS011;28361;50.740;7.084;2022-10-16T17:12:00;1.88;;;1.20;;
41986;SDS011;28361;50.740;7.084;2022-10-16T17:14:26;0.98;;;0.77;;
41986;SDS011;28361;50.740;7.084;2022-10-16T17:16:52;2.67;;;1.00;;
41986;SDS011;28361;50.740;7.084;2022-10-16T17:19:19;1.13;;;0.65;;
41986;SDS011;28361;50.740;7.084;2022-10-16T17:21:49;2.33;;;0.85;;
41986;SDS011;28361;50.740;7.084;2022-10-16T17:24:15;0.93;;;0.68;;
41986;SDS011;28361;50.740;7.084;2022-10-16T17:26:42;0.88;;;0.77;;
41986;SDS011;28361;50.740;7.084;2022-10-16T17:29:13;2.25;;;1.30;;
41986;SDS011;28361;50.740;7.084;2022-10-16T17:31:39;1.95;;;1.00;;
41986;SDS011;28361;50.740;7.084;2022-10-16T17:34:07;1.50;;;0.85;;
41986;SDS011;28361;50.740;7.084;2022-10-16T17:36:35;1.98;;;0.88;;